createdAt,value
2023-01-31T00:02:04.823Z,100904.72
2023-01-31T00:04:33.051Z,100902.09
2023-01-31T00:07:01.179Z,100896.00
2023-01-31T00:09:29.496Z,100904.69
2023-01-31T00:11:57.707Z,100913.38
2023-01-31T00:14:27.158Z,100918.63
2023-01-31T00:16:55.474Z,100929.94
2023-01-31T00:19:23.790Z,100926.44
2023-01-31T00:21:52.401Z,100916.88
2023-01-31T00:24:20.740Z,100925.59
2023-01-31T00:26:56.952Z,100939.47
2023-01-31T00:29:28.735Z,100936.88
2023-01-31T00:31:57.106Z,100936.88
2023-01-31T00:34:25.364Z,100936.00
2023-01-31T00:36:53.535Z,100934.25
2023-01-31T00:39:21.821Z,100932.53
2023-01-31T00:41:50.003Z,100923.84
2023-01-31T00:44:18.418Z,100916.00
2023-01-31T00:46:47.909Z,100910.78
2023-01-31T00:49:16.153Z,100897.72
2023-01-31T00:51:44.769Z,100891.63
2023-01-31T00:54:13.412Z,100888.13
2023-01-31T00:56:41.585Z,100880.28
2023-01-31T00:59:09.773Z,100871.59
2023-01-31T01:01:38.744Z,100858.53
2023-01-31T01:04:08.658Z,100853.31
2023-01-31T01:06:39.364Z,100844.59
2023-01-31T01:09:07.589Z,100850.69
2023-01-31T01:11:36.819Z,100843.75
2023-01-31T01:14:05.559Z,100848.09
2023-01-31T01:16:36.822Z,100841.13
2023-01-31T01:19:06.346Z,100841.13
2023-01-31T01:21:39.281Z,100838.50
2023-01-31T01:24:09.604Z,100835.88
2023-01-31T01:26:40.548Z,100825.44
2023-01-31T01:29:08.857Z,100824.59
2023-01-31T01:31:39.013Z,100828.91
2023-01-31T01:34:09.878Z,100826.31
2023-01-31T01:36:40.841Z,100808.03
2023-01-31T01:39:11.836Z,100810.63
2023-01-31T01:41:41.366Z,100797.59
2023-01-31T01:44:43.178Z,100806.31
2023-01-31T01:47:18.067Z,100806.28
2023-01-31T01:49:49.049Z,100813.25
2023-01-31T01:52:19.458Z,100806.31
2023-01-31T01:54:53.986Z,100816.75
2023-01-31T01:57:26.928Z,100809.75
2023-01-31T02:00:04.569Z,100799.31
2023-01-31T02:02:44.239Z,100799.31
2023-01-31T02:05:16.023Z,100784.53
2023-01-31T02:07:45.697Z,100793.25
2023-01-31T02:10:19.085Z,100794.09
2023-01-31T02:12:47.557Z,100781.91
2023-01-31T02:15:16.378Z,100790.59
2023-01-31T02:17:44.952Z,100776.69
2023-01-31T02:20:28.079Z,100765.34
2023-01-31T02:23:27.517Z,100775.81
2023-01-31T02:26:19.734Z,100771.47
2023-01-31T02:29:19.498Z,100761.94
2023-01-31T02:32:25.039Z,100756.75
2023-01-31T02:35:10.007Z,100759.34
2023-01-31T02:37:49.039Z,100762.88
2023-01-31T02:40:24.191Z,100756.78
2023-01-31T02:42:59.595Z,100761.16
2023-01-31T02:45:39.027Z,100742.03
2023-01-31T02:48:20.323Z,100738.53
2023-01-31T02:51:01.867Z,100733.31
2023-01-31T02:53:35.402Z,100745.50
2023-01-31T02:56:25.500Z,100752.47
2023-01-31T02:58:57.899Z,100753.34
2023-01-31T03:01:30.190Z,100746.38
2023-01-31T03:04:00.849Z,100741.16
2023-01-31T03:07:00.085Z,100730.75
2023-01-31T03:09:39.759Z,100736.88
2023-01-31T03:12:23.153Z,100724.72
2023-01-31T03:15:06.990Z,100735.16
2023-01-31T03:17:48.136Z,100730.78
2023-01-31T03:20:23.600Z,100734.25
2023-01-31T03:22:58.572Z,100742.09
2023-01-31T03:25:30.286Z,100737.72
2023-01-31T03:28:06.499Z,100739.50
2023-01-31T03:30:41.095Z,100746.47
2023-01-31T03:33:16.290Z,100734.25
2023-01-31T03:35:48.588Z,100729.91
2023-01-31T03:38:23.270Z,100732.50
2023-01-31T03:40:58.939Z,100730.75
2023-01-31T03:43:32.937Z,100731.59
2023-01-31T03:46:08.765Z,100739.38
2023-01-31T03:48:47.449Z,100728.09
2023-01-31T03:51:20.396Z,100712.41
2023-01-31T03:53:54.262Z,100717.56
2023-01-31T03:56:26.093Z,100708.84
2023-01-31T03:59:00.157Z,100714.06
2023-01-31T04:01:33.311Z,100707.97
2023-01-31T04:04:07.037Z,100709.69
2023-01-31T04:06:35.706Z,100706.22
2023-01-31T04:09:05.497Z,100701.88
2023-01-31T04:11:38.499Z,100707.06
2023-01-31T04:14:07.318Z,100706.13
2023-01-31T04:16:35.836Z,100700.81
2023-01-31T04:19:04.151Z,100696.44
2023-01-31T04:21:32.416Z,100689.53
2023-01-31T04:24:00.618Z,100692.16
2023-01-31T04:26:30.315Z,100696.56
2023-01-31T04:28:58.590Z,100680.88
2023-01-31T04:31:26.979Z,100691.34
2023-01-31T04:33:56.134Z,100687.88
2023-01-31T04:36:24.338Z,100687.78
2023-01-31T04:38:52.529Z,100686.03
2023-01-31T04:41:20.787Z,100683.38
2023-01-31T04:43:50.355Z,100672.88
2023-01-31T04:46:18.781Z,100672.00
2023-01-31T04:48:47.060Z,100665.03
2023-01-31T04:51:15.220Z,100673.72
2023-01-31T04:53:45.320Z,100656.31
2023-01-31T04:56:13.533Z,100658.09
2023-01-31T04:58:43.540Z,100656.31
2023-01-31T05:01:12.994Z,100652.88
2023-01-31T05:03:41.318Z,100643.31
2023-01-31T05:06:10.064Z,100645.91
2023-01-31T05:08:38.308Z,100641.56
2023-01-31T05:11:07.542Z,100640.66
2023-01-31T05:13:38.287Z,100633.69
2023-01-31T05:16:08.602Z,100624.97
2023-01-31T05:18:38.570Z,100620.63
2023-01-31T05:21:08.315Z,100612.81
2023-01-31T05:23:36.777Z,100620.59
2023-01-31T05:26:05.696Z,100602.28
2023-01-31T05:28:33.999Z,100601.41
2023-01-31T05:31:04.997Z,100614.47
2023-01-31T05:33:33.549Z,100632.75
2023-01-31T05:36:04.176Z,100607.44
2023-01-31T05:38:32.650Z,100609.09
2023-01-31T05:41:00.794Z,100615.16
2023-01-31T05:43:29.070Z,100609.91
2023-01-31T05:45:57.333Z,100603.75
2023-01-31T05:48:25.717Z,100605.41
2023-01-31T05:50:53.886Z,100599.34
2023-01-31T05:53:23.612Z,100603.69
2023-01-31T05:55:51.765Z,100614.16
2023-01-31T05:58:20.024Z,100607.25
2023-01-31T06:00:48.171Z,100602.03
2023-01-31T06:03:16.557Z,100600.31
2023-01-31T06:05:45.200Z,100588.97
2023-01-31T06:08:13.957Z,100603.75
2023-01-31T06:10:43.400Z,100596.81
2023-01-31T06:13:11.568Z,100600.31
2023-01-31T06:15:44.653Z,100592.50
2023-01-31T06:18:13.347Z,100589.00
2023-01-31T06:20:41.491Z,100588.94
2023-01-31T06:23:09.748Z,100584.53
2023-01-31T06:25:38.026Z,100581.00
2023-01-31T06:28:07.738Z,100581.00
2023-01-31T06:30:36.774Z,100576.69
2023-01-31T06:33:05.260Z,100580.19
2023-01-31T06:35:34.155Z,100579.34
2023-01-31T06:38:02.357Z,100566.22
2023-01-31T06:40:30.895Z,100574.09
2023-01-31T06:42:59.131Z,100571.44
2023-01-31T06:45:28.791Z,100588.84
2023-01-31T06:47:57.142Z,100586.28
2023-01-31T06:50:25.261Z,100588.06
2023-01-31T06:52:54.350Z,100586.34
2023-01-31T06:55:22.872Z,100587.25
2023-01-31T06:57:51.491Z,100589.00
2023-01-31T07:00:20.614Z,100587.19
2023-01-31T07:02:50.389Z,100596.75
2023-01-31T07:05:19.706Z,100588.94
2023-01-31T07:07:49.805Z,100590.69
2023-01-31T07:10:18.259Z,100575.84
2023-01-31T07:12:46.699Z,100568.88
2023-01-31T07:15:14.896Z,100556.69
2023-01-31T07:17:44.243Z,100561.94
2023-01-31T07:20:14.330Z,100581.94
2023-01-31T07:22:42.557Z,100575.78
2023-01-31T07:25:11.714Z,100575.72
2023-01-31T07:27:39.981Z,100563.59
2023-01-31T07:30:08.951Z,100573.22
2023-01-31T07:32:37.162Z,100574.97
2023-01-31T07:35:05.612Z,100583.69
2023-01-31T07:37:35.400Z,100571.44
2023-01-31T07:40:05.163Z,100570.56
2023-01-31T07:42:33.497Z,100574.03
2023-01-31T07:45:13.128Z,100560.03
2023-01-31T07:47:50.088Z,100556.44
2023-01-31T07:50:18.713Z,100577.31
2023-01-31T07:52:50.167Z,100568.56
2023-01-31T07:55:18.912Z,100580.72
2023-01-31T07:57:47.438Z,100585.81
2023-01-31T08:00:30.096Z,100587.41
2023-01-31T08:03:16.205Z,100574.19
2023-01-31T08:05:47.707Z,100565.34
2023-01-31T08:08:17.507Z,100568.75
2023-01-31T08:10:47.414Z,100574.72
2023-01-31T08:13:15.727Z,100567.63
2023-01-31T08:15:43.919Z,100574.41
2023-01-31T08:18:12.137Z,100589.97
2023-01-31T08:20:41.469Z,100579.38
2023-01-31T08:23:09.751Z,100579.25
2023-01-31T08:25:39.287Z,100565.94
2023-01-31T08:28:07.797Z,100568.34
2023-01-31T08:30:36.291Z,100574.31
2023-01-31T08:33:04.573Z,100560.22
2023-01-31T08:35:32.808Z,100552.38
2023-01-31T08:38:15.386Z,100556.69
2023-01-31T08:40:45.529Z,100565.47
2023-01-31T08:43:13.877Z,100571.56
2023-01-31T08:45:42.411Z,100567.13
2023-01-31T08:48:10.571Z,100572.28
2023-01-31T08:50:40.480Z,100566.16
2023-01-31T08:53:08.891Z,100574.06
2023-01-31T08:55:37.598Z,100588.84
2023-01-31T08:58:07.612Z,100587.09
2023-01-31T09:00:35.945Z,100587.00
2023-01-31T09:03:05.492Z,100585.25
2023-01-31T09:05:34.533Z,100598.31
2023-01-31T09:08:02.836Z,100606.97
2023-01-31T09:10:31.397Z,100606.06
2023-01-31T09:13:00.939Z,100606.91
2023-01-31T09:15:31.274Z,100606.00
2023-01-31T09:17:59.560Z,100616.44
2023-01-31T09:20:27.773Z,100612.06
2023-01-31T09:22:56.322Z,100614.63
2023-01-31T09:25:41.291Z,100613.59
2023-01-31T09:28:12.131Z,100614.44
2023-01-31T09:30:41.670Z,100625.16
2023-01-31T09:33:09.916Z,100605.25
2023-01-31T09:35:38.125Z,100628.03
2023-01-31T09:38:06.499Z,100627.13
2023-01-31T09:40:39.165Z,100636.75
2023-01-31T09:43:12.725Z,100634.91
2023-01-31T09:45:45.558Z,100633.88
2023-01-31T09:48:21.250Z,100633.69
2023-01-31T09:50:55.955Z,100628.91
2023-01-31T09:53:26.674Z,100633.91
2023-01-31T09:56:06.042Z,100644.94
2023-01-31T09:58:42.807Z,100652.72
2023-01-31T10:01:21.065Z,100643.72
2023-01-31T10:04:00.748Z,100647.19
2023-01-31T10:06:34.996Z,100638.38
2023-01-31T10:09:07.151Z,100645.47
2023-01-31T10:11:41.424Z,100627.34
2023-01-31T10:14:22.322Z,100634.50
2023-01-31T10:17:02.347Z,100637.31
2023-01-31T10:19:36.146Z,100645.84
2023-01-31T10:22:06.906Z,100643.84
2023-01-31T10:24:41.048Z,100656.66
2023-01-31T10:27:17.860Z,100644.16
2023-01-31T10:29:51.952Z,100650.97
2023-01-31T10:35:19.399Z,100654.16
2023-01-31T10:37:51.542Z,100656.59
2023-01-31T10:40:25.148Z,100662.63
2023-01-31T10:43:00.549Z,100660.81
2023-01-31T10:45:32.009Z,100659.84
2023-01-31T10:48:15.414Z,100670.25
2023-01-31T10:50:54.333Z,100663.09
2023-01-31T10:53:38.908Z,100658.41
2023-01-31T10:56:11.967Z,100658.97
2023-01-31T10:58:40.605Z,100653.56
2023-01-31T11:01:12.237Z,100640.19
2023-01-31T11:03:47.167Z,100630.28
2023-01-31T11:06:15.757Z,100641.34
2023-01-31T11:08:48.651Z,100632.09
2023-01-31T11:11:19.262Z,100632.75
2023-01-31T11:13:58.904Z,100620.59
2023-01-31T11:16:31.048Z,100629.06
2023-01-31T11:19:04.115Z,100618.16
2023-01-31T11:21:35.613Z,100629.41
2023-01-31T11:24:06.907Z,100630.59
2023-01-31T11:26:37.977Z,100618.53
2023-01-31T11:29:11.969Z,100622.13
2023-01-31T11:31:45.795Z,100626.22
2023-01-31T11:34:24.324Z,100611.72
2023-01-31T11:36:53.195Z,100626.47
2023-01-31T11:39:29.563Z,100631.47
2023-01-31T11:41:58.717Z,100643.94
2023-01-31T11:44:26.863Z,100652.53
2023-01-31T11:46:57.671Z,100651.47
2023-01-31T11:49:33.547Z,100652.28
2023-01-31T11:52:11.801Z,100650.31
2023-01-31T11:54:44.895Z,100648.00
2023-01-31T11:57:17.395Z,100644.81
2023-01-31T11:59:45.608Z,100647.88
2023-01-31T12:02:28.915Z,100667.91
2023-01-31T12:05:00.626Z,100659.38
2023-01-31T12:07:32.435Z,100655.34
2023-01-31T12:10:00.642Z,100654.38
2023-01-31T12:12:31.421Z,100646.91
2023-01-31T12:15:03.745Z,100657.41
2023-01-31T12:17:36.101Z,100655.91
2023-01-31T12:20:28.161Z,100650.66
2023-01-31T12:23:08.658Z,100654.47
2023-01-31T12:25:53.771Z,100654.88
2023-01-31T12:28:33.103Z,100652.25
2023-01-31T12:31:15.259Z,100653.00
2023-01-31T12:33:58.618Z,100654.88
2023-01-31T12:36:43.779Z,100646.97
2023-01-31T12:39:22.296Z,100649.53
2023-01-31T12:42:03.399Z,100646.09
2023-01-31T12:44:45.276Z,100647.72
2023-01-31T12:47:35.851Z,100649.34
2023-01-31T12:50:20.687Z,100657.13
2023-01-31T12:53:13.400Z,100644.00
2023-01-31T12:55:51.679Z,100648.34
2023-01-31T12:58:40.559Z,100651.84
2023-01-31T13:01:13.040Z,100658.81
2023-01-31T13:03:58.579Z,100655.19
2023-01-31T13:06:32.933Z,100654.97
2023-01-31T13:09:09.027Z,100648.72
2023-01-31T13:11:41.939Z,100645.03
2023-01-31T13:14:16.848Z,100635.34
2023-01-31T13:16:48.698Z,100625.84
2023-01-31T13:19:21.488Z,100620.00
2023-01-31T13:21:56.153Z,100610.00
2023-01-31T13:24:30.818Z,100614.69
2023-01-31T13:27:03.372Z,100614.69
2023-01-31T13:29:35.708Z,100614.53
2023-01-31T13:32:10.444Z,100602.09
2023-01-31T13:34:51.466Z,100623.22
2023-01-31T13:37:21.502Z,100613.06
2023-01-31T13:39:54.980Z,100614.97
2023-01-31T13:42:23.244Z,100620.34
2023-01-31T13:44:51.604Z,100620.34
2023-01-31T13:47:25.181Z,100617.66
2023-01-31T13:49:56.913Z,100627.06
2023-01-31T13:52:29.730Z,100635.56
2023-01-31T13:55:02.291Z,100637.94
2023-01-31T13:57:34.797Z,100640.91
2023-01-31T14:00:10.839Z,100641.44
2023-01-31T14:02:39.193Z,100634.91
2023-01-31T14:05:30.288Z,100644.03
2023-01-31T14:08:31.830Z,100649.47
2023-01-31T14:11:03.053Z,100647.09
2023-01-31T14:13:50.038Z,100647.16
2023-01-31T14:16:39.484Z,100655.06
2023-01-31T14:20:01.761Z,100666.34
2023-01-31T14:22:34.916Z,100676.00
2023-01-31T14:25:06.146Z,100674.25
2023-01-31T14:27:43.852Z,100670.75
2023-01-31T14:30:38.171Z,100682.19
2023-01-31T14:33:14.762Z,100676.09
2023-01-31T14:35:59.407Z,100664.78
2023-01-31T14:38:41.910Z,100673.50
2023-01-31T14:41:19.937Z,100662.13
2023-01-31T14:44:04.468Z,100657.84
2023-01-31T14:46:45.949Z,100668.44
2023-01-31T14:49:31.467Z,100673.75
2023-01-31T14:52:21.441Z,100663.31
2023-01-31T14:55:16.764Z,100658.97
2023-01-31T14:57:48.218Z,100668.69
2023-01-31T15:00:23.284Z,100671.34
2023-01-31T15:02:57.034Z,100662.66
2023-01-31T15:05:41.508Z,100673.97
2023-01-31T15:08:43.039Z,100667.81
2023-01-31T15:11:41.928Z,100680.97
2023-01-31T15:14:35.351Z,100687.16
2023-01-31T15:17:27.351Z,100681.91
2023-01-31T15:20:07.766Z,100685.41
2023-01-31T15:22:41.441Z,100693.41
2023-01-31T15:25:23.777Z,100694.34
2023-01-31T15:27:53.891Z,100699.59
2023-01-31T15:30:41.574Z,100705.75
2023-01-31T15:33:19.091Z,100694.44
2023-01-31T15:35:53.637Z,100689.19
2023-01-31T15:38:29.739Z,100684.03
2023-01-31T15:41:18.230Z,100684.91
2023-01-31T15:43:47.810Z,100685.84
2023-01-31T15:46:22.801Z,100693.75
2023-01-31T15:48:52.931Z,100685.97
2023-01-31T15:51:22.243Z,100684.31
2023-01-31T15:54:01.334Z,100691.34
2023-01-31T15:56:31.012Z,100699.25
2023-01-31T15:58:59.987Z,100693.13
2023-01-31T16:01:31.573Z,100693.06
2023-01-31T16:04:01.683Z,100706.94
2023-01-31T16:06:34.264Z,100694.69
2023-01-31T16:09:04.999Z,100699.81
2023-01-31T16:11:35.321Z,100696.31
2023-01-31T16:14:06.583Z,100694.63
2023-01-31T16:16:37.242Z,100705.16
2023-01-31T16:19:07.525Z,100700.81
2023-01-31T16:21:39.594Z,100712.22
2023-01-31T16:24:16.017Z,100708.81
2023-01-31T16:26:55.194Z,100698.47
2023-01-31T16:29:26.037Z,100708.13
2023-01-31T16:31:56.704Z,100703.81
2023-01-31T16:34:29.956Z,100703.09
2023-01-31T16:37:01.112Z,100697.13
2023-01-31T16:39:36.608Z,100704.16
2023-01-31T16:42:07.864Z,100712.88
2023-01-31T16:44:41.275Z,100721.63
2023-01-31T16:47:32.856Z,100726.97
2023-01-31T16:50:42.551Z,100720.03
2023-01-31T16:53:20.257Z,100740.16
2023-01-31T16:56:23.629Z,100752.50
2023-01-31T16:58:55.273Z,100749.16
2023-01-31T17:01:26.909Z,100750.97
2023-01-31T17:04:04.501Z,100762.34
2023-01-31T17:06:34.844Z,100752.81
2023-01-31T17:09:05.386Z,100755.41
2023-01-31T17:11:42.573Z,100755.41
2023-01-31T17:14:12.149Z,100749.31
2023-01-31T17:16:41.308Z,100742.28
2023-01-31T17:19:09.655Z,100744.00
2023-01-31T17:21:42.544Z,100744.91
2023-01-31T17:24:14.715Z,100744.88
2023-01-31T17:26:43.285Z,100745.66
2023-01-31T17:29:12.099Z,100744.78
2023-01-31T17:31:42.329Z,100733.44
2023-01-31T17:34:14.705Z,100740.41
2023-01-31T17:36:44.807Z,100739.50
2023-01-31T17:39:13.035Z,100731.75
2023-01-31T17:41:41.895Z,100736.09
2023-01-31T17:44:15.293Z,100730.91
2023-01-31T17:46:44.518Z,100737.00
2023-01-31T17:49:12.862Z,100730.94
2023-01-31T17:51:41.609Z,100729.28
2023-01-31T17:54:11.581Z,100736.34
2023-01-31T17:56:40.084Z,100738.19
2023-01-31T17:59:15.180Z,100731.22
2023-01-31T18:01:53.924Z,100737.31
2023-01-31T18:04:22.288Z,100746.06
2023-01-31T18:06:50.578Z,100747.84
2023-01-31T18:09:20.975Z,100745.22
2023-01-31T18:11:49.900Z,100748.66
2023-01-31T18:14:18.132Z,100746.94
2023-01-31T18:16:46.506Z,100744.38
2023-01-31T18:19:14.691Z,100753.06
2023-01-31T18:21:53.430Z,100743.47
2023-01-31T18:24:24.819Z,100741.75
2023-01-31T18:26:53.596Z,100745.28
2023-01-31T18:29:25.428Z,100749.66
2023-01-31T18:31:57.723Z,100744.44
2023-01-31T18:34:26.692Z,100747.94
2023-01-31T18:36:54.892Z,100747.06
2023-01-31T18:39:24.887Z,100742.75
2023-01-31T18:41:53.476Z,100757.56
2023-01-31T18:44:21.711Z,100762.81
2023-01-31T18:46:49.997Z,100760.19
2023-01-31T18:49:20.120Z,100765.50
2023-01-31T18:51:49.811Z,100761.16
2023-01-31T18:54:18.294Z,100749.03
2023-01-31T18:56:48.114Z,100750.78
2023-01-31T18:59:16.341Z,100756.84
2023-01-31T19:01:44.562Z,100754.25
2023-01-31T19:04:13.353Z,100752.53
2023-01-31T19:06:42.103Z,100760.31
2023-01-31T19:09:11.367Z,100753.34
2023-01-31T19:11:41.817Z,100759.41
2023-01-31T19:14:14.845Z,100745.50
2023-01-31T19:16:44.952Z,100739.41
2023-01-31T19:19:13.732Z,100748.13
2023-01-31T19:21:42.684Z,100742.91
2023-01-31T19:24:16.177Z,100738.59
2023-01-31T19:26:45.073Z,100735.09
2023-01-31T19:29:16.652Z,100741.22
2023-01-31T19:31:45.910Z,100742.91
2023-01-31T19:34:14.140Z,100741.16
2023-01-31T19:36:44.825Z,100726.38
2023-01-31T19:39:13.835Z,100718.56
2023-01-31T19:41:43.133Z,100722.03
2023-01-31T19:44:11.656Z,100723.78
2023-01-31T19:46:42.659Z,100717.66
2023-01-31T19:49:10.882Z,100714.19
2023-01-31T19:51:39.143Z,100702.00
2023-01-31T19:54:07.973Z,100696.78
2023-01-31T19:56:36.131Z,100710.69
2023-01-31T19:59:05.980Z,100708.03
2023-01-31T20:01:34.647Z,100708.91
2023-01-31T20:04:04.218Z,100702.84
2023-01-31T20:06:35.049Z,100709.81
2023-01-31T20:09:06.224Z,100711.56
2023-01-31T20:11:36.656Z,100712.44
2023-01-31T20:14:06.532Z,100702.94
2023-01-31T20:16:34.817Z,100689.88
2023-01-31T20:19:06.629Z,100694.22
2023-01-31T20:21:34.936Z,100686.41
2023-01-31T20:24:03.385Z,100698.53
2023-01-31T20:26:31.648Z,100688.94
2023-01-31T20:28:59.992Z,100697.63
2023-01-31T20:31:28.293Z,100689.78
2023-01-31T20:33:56.667Z,100688.03
2023-01-31T20:36:26.204Z,100687.16
2023-01-31T20:38:54.769Z,100696.75
2023-01-31T20:41:23.322Z,100694.13
2023-01-31T20:43:51.589Z,100710.63
2023-01-31T20:46:20.163Z,100703.69
2023-01-31T20:48:48.830Z,100701.91
2023-01-31T20:51:16.939Z,100707.13
2023-01-31T20:53:46.405Z,100700.19
2023-01-31T20:56:14.909Z,100708.00
2023-01-31T20:58:44.226Z,100706.31
2023-01-31T21:01:13.449Z,100708.94
2023-01-31T21:03:42.148Z,100708.97
2023-01-31T21:06:10.944Z,100714.19
2023-01-31T21:08:40.035Z,100701.16
2023-01-31T21:11:11.170Z,100689.84
2023-01-31T21:13:39.890Z,100697.69
2023-01-31T21:16:09.578Z,100685.50
2023-01-31T21:18:39.449Z,100676.81
2023-01-31T21:21:09.437Z,100689.88
2023-01-31T21:23:39.119Z,100682.94
2023-01-31T21:26:11.095Z,100686.41
2023-01-31T21:28:41.004Z,100674.22
2023-01-31T21:31:12.807Z,100675.91
2023-01-31T21:33:41.393Z,100667.22
2023-01-31T21:36:10.896Z,100668.97
2023-01-31T21:38:39.798Z,100681.16
2023-01-31T21:41:28.259Z,100688.94
2023-01-31T21:43:56.963Z,100697.63
2023-01-31T21:46:26.662Z,100694.16
2023-01-31T21:48:55.204Z,100704.59
2023-01-31T21:51:26.129Z,100707.19
2023-01-31T21:53:55.006Z,100700.25
2023-01-31T21:56:26.554Z,100713.31
2023-01-31T21:58:54.858Z,100717.63
2023-01-31T22:01:28.460Z,100721.09
2023-01-31T22:03:57.527Z,100722.84
2023-01-31T22:06:31.344Z,100724.59
2023-01-31T22:09:01.237Z,100715.91
2023-01-31T22:11:33.381Z,100705.47
2023-01-31T22:14:03.045Z,100691.50
2023-01-31T22:16:31.497Z,100694.97
2023-01-31T22:19:01.024Z,100696.72
2023-01-31T22:21:31.413Z,100693.28
2023-01-31T22:24:01.254Z,100688.94
2023-01-31T22:26:33.111Z,100694.16
2023-01-31T22:29:04.383Z,100701.97
2023-01-31T22:31:33.345Z,100703.69
2023-01-31T22:34:02.068Z,100696.69
2023-01-31T22:36:30.636Z,100695.00
2023-01-31T22:38:58.775Z,100691.53
2023-01-31T22:41:27.091Z,100695.03
2023-01-31T22:43:57.118Z,100682.03
2023-01-31T22:46:26.988Z,100689.88
2023-01-31T22:48:55.869Z,100677.69
2023-01-31T22:51:26.390Z,100675.91
2023-01-31T22:53:55.780Z,100671.53
2023-01-31T22:56:25.576Z,100670.66
2023-01-31T22:58:58.312Z,100686.31
2023-01-31T23:01:28.766Z,100684.63
2023-01-31T23:03:58.882Z,100697.69
2023-01-31T23:06:28.107Z,100706.34
2023-01-31T23:08:57.070Z,100700.31
2023-01-31T23:11:26.376Z,100689.88
2023-01-31T23:13:54.769Z,100693.34
2023-01-31T23:16:46.878Z,100703.78
2023-01-31T23:19:16.484Z,100702.94
2023-01-31T23:21:45.119Z,100715.06
2023-01-31T23:24:14.693Z,100708.94
2023-01-31T23:26:43.609Z,100711.56
2023-01-31T23:29:12.242Z,100704.59
2023-01-31T23:31:41.874Z,100705.50
2023-01-31T23:34:10.183Z,100698.53
2023-01-31T23:36:38.383Z,100698.53
2023-01-31T23:39:07.144Z,100693.31
2023-01-31T23:41:35.405Z,100700.28
2023-01-31T23:44:03.728Z,100709.00
2023-01-31T23:46:32.420Z,100702.91
2023-01-31T23:49:02.041Z,100688.13
2023-01-31T23:51:31.417Z,100690.69
2023-01-31T23:53:59.736Z,100677.63
2023-01-31T23:56:27.906Z,100692.41
2023-01-31T23:58:56.159Z,100700.25
